This is the latest recevied weather packets stored in our database for station/object IZ2XCK-13. If no packets are shown the sender has not sent any weather packets the latest 10 day(s).
| Time | Temp. | Humidity | Pressure | Rain* | Wind** | Luminosity | Snow |
|---|---|---|---|---|---|---|---|
| 1777950316 | 13.89° C | 49% | 1014.7 hPa | - | - | - | - |
| 1777949115 | 13.89° C | 50% | 1014.8 hPa | - | - | - | - |
| 1777947915 | 13.89° C | 49% | 1014.8 hPa | - | - | - | - |
| 1777946715 | 13.89° C | 50% | 1014.9 hPa | - | - | - | - |
| 1777945515 | 13.89° C | 50% | 1015.2 hPa | - | - | - | - |
| 1777944314 | 13.89° C | 50% | 1015.7 hPa | - | - | - | - |
| 1777943114 | 13.89° C | 51% | 1016.1 hPa | - | - | - | - |
| 1777941914 | 13.89° C | 50% | 1016.5 hPa | - | - | - | - |
| 1777940713 | 13.89° C | 49% | 1016.7 hPa | - | - | - | - |
| 1777939513 | 14.44° C | 49% | 1016.8 hPa | - | - | - | - |
| 1777938313 | 14.44° C | 47% | 1016.9 hPa | - | - | - | - |
| 1777937112 | 14.44° C | 48% | 1017.2 hPa | - | - | - | - |
| 1777935912 | 14.44° C | 49% | 1017.5 hPa | - | - | - | - |
| 1777934712 | 14.44° C | 49% | 1017.6 hPa | - | - | - | - |
| 1777933512 | 14.44° C | 47% | 1017.7 hPa | - | - | - | - |
| 1777932311 | 15.56° C | 45% | 1017.8 hPa | - | - | - | - |
| 1777931111 | 15° C | 47% | 1018 hPa | - | - | - | - |
| 1777929911 | 16.11° C | 43% | 1018.1 hPa | - | - | - | - |
| 1777928710 | 15.56° C | 45% | 1018.2 hPa | - | - | - | - |
| 1777927510 | 16.11° C | 43% | 1018.2 hPa | - | - | - | - |
| 1777926310 | 16.11° C | 43% | 1018.1 hPa | - | - | - | - |
| 1777925109 | 16.11° C | 43% | 1018 hPa | - | - | - | - |
| 1777923909 | 16.67° C | 43% | 1018 hPa | - | - | - | - |
| 1777922709 | 17.22° C | 42% | 1017.8 hPa | - | - | - | - |
| 1777921508 | 17.78° C | 40% | 1017.7 hPa | - | - | - | - |
* Rain since midnight (hover to see other rain measurements)
** Current wind speed in m/s (hover to see current wind gust speed)